Time;durP1;ratioP1;P1;durP2;ratioP2;P2;SDS_P1;SDS_P2;PMS_P1;PMS_P2;Temp;Humidity;BMP_temperature;BMP_pressure;BME280_temperature;BME280_humidity;BME280_pressure;Samples;Min_cycle;Max_cycle;Signal;HPM_P1;HPM_P2
2022/08/26 00:01:49;;;;;;;8.33;6.70;;;23.30;99.90;;;;;;4997424;28;20966;-83
2022/08/26 00:04:16;;;;;;;6.80;6.10;;;23.20;99.90;;;;;;4997674;28;20846;-84
2022/08/26 00:06:43;;;;;;;8.30;6.27;;;23.20;99.90;;;;;;4997438;28;20486;-83
2022/08/26 00:09:11;;;;;;;7.20;6.33;;;23.20;99.90;;;;;;4997940;28;20534;-83
2022/08/26 00:11:38;;;;;;;9.93;7.57;;;23.20;99.90;;;;;;4997024;28;20515;-83
2022/08/26 00:14:05;;;;;;;9.00;7.10;;;23.10;99.90;;;;;;4996431;28;20491;-85
2022/08/26 00:16:33;;;;;;;8.73;6.80;;;23.10;99.90;;;;;;4997669;28;20905;-83
2022/08/26 00:19:00;;;;;;;8.40;7.47;;;23.10;99.90;;;;;;4997675;28;20455;-85
2022/08/26 00:21:26;;;;;;;7.80;6.77;;;23.10;99.90;;;;;;4997750;28;20537;-84
2022/08/26 00:23:53;;;;;;;10.53;6.30;;;23.10;99.90;;;;;;4997004;28;20491;-84
2022/08/26 00:26:22;;;;;;;7.93;6.80;;;23.00;99.90;;;;;;4998931;28;20466;-84
2022/08/26 00:28:48;;;;;;;9.70;7.57;;;23.00;99.90;;;;;;4997561;28;20596;-85
2022/08/26 00:31:15;;;;;;;7.83;6.60;;;23.00;99.90;;;;;;4997687;28;20505;-86
2022/08/26 00:33:43;;;;;;;9.80;7.43;;;23.00;99.90;;;;;;4997670;28;20876;-86
2022/08/26 00:36:10;;;;;;;10.13;7.40;;;22.90;99.90;;;;;;4997908;28;20547;-84
2022/08/26 00:38:37;;;;;;;10.53;7.67;;;22.90;99.90;;;;;;4997653;28;20450;-85
2022/08/26 00:41:05;;;;;;;7.60;6.20;;;22.90;99.90;;;;;;4997406;28;20462;-86
2022/08/26 00:43:35;;;;;;;7.37;6.67;;;22.90;99.90;;;;;;4996554;28;20467;-84
2022/08/26 00:46:08;;;;;;;7.93;7.13;;;22.90;99.90;;;;;;4996802;28;20485;-84
2022/08/26 00:48:37;;;;;;;9.93;6.93;;;22.80;99.90;;;;;;4996569;28;20478;-85
2022/08/26 00:51:09;;;;;;;7.80;6.77;;;22.80;99.90;;;;;;4996428;28;20458;-83
2022/08/26 00:53:41;;;;;;;8.63;7.53;;;22.80;99.90;;;;;;4995757;28;20580;-83
2022/08/26 00:56:13;;;;;;;9.20;7.33;;;22.80;99.90;;;;;;4997095;28;20967;-84
2022/08/26 00:58:44;;;;;;;10.37;8.33;;;22.70;99.90;;;;;;4997630;28;20458;-85
2022/08/26 01:01:11;;;;;;;8.40;7.60;;;22.70;99.90;;;;;;4997393;28;20518;-85
2022/08/26 01:03:39;;;;;;;9.20;6.93;;;22.70;99.90;;;;;;4996106;28;20506;-85
2022/08/26 01:06:07;;;;;;;8.30;6.83;;;22.70;99.90;;;;;;5004471;28;20470;-86
2022/08/26 01:08:34;;;;;;;9.90;7.83;;;22.60;99.90;;;;;;4999276;28;20466;-85
2022/08/26 01:11:02;;;;;;;8.53;7.63;;;22.60;99.90;;;;;;4999004;28;20557;-85
2022/08/26 01:13:30;;;;;;;8.47;6.93;;;22.60;99.90;;;;;;4997711;28;20550;-86
2022/08/26 01:16:02;;;;;;;9.27;7.87;;;22.40;99.90;;;;;;4998739;28;20549;-85
2022/08/26 01:18:30;;;;;;;10.10;8.17;;;22.40;99.90;;;;;;4998162;28;20534;-84
2022/08/26 01:21:03;;;;;;;9.47;8.10;;;22.40;99.90;;;;;;4997516;28;20451;-84
2022/08/26 01:23:35;;;;;;;12.57;9.17;;;22.50;99.90;;;;;;4997997;28;21223;-84
2022/08/26 01:26:07;;;;;;;14.70;9.93;;;22.50;99.90;;;;;;4999235;28;20431;-84
2022/08/26 01:28:36;;;;;;;12.40;9.50;;;22.50;99.90;;;;;;4998062;28;20564;-83
2022/08/26 01:31:07;;;;;;;12.30;9.73;;;22.40;99.90;;;;;;4997478;28;20456;-85
2022/08/26 01:33:40;;;;;;;10.80;9.20;;;22.50;99.90;;;;;;4997333;28;20502;-85
2022/08/26 01:36:08;;;;;;;12.50;10.33;;;22.40;99.90;;;;;;4998514;28;20954;-85
2022/08/26 01:38:36;;;;;;;10.73;9.63;;;22.40;99.90;;;;;;4998714;28;20455;-85
2022/08/26 01:41:03;;;;;;;11.23;9.67;;;22.50;99.90;;;;;;4999961;28;20462;-83
2022/08/26 01:43:33;;;;;;;13.03;10.77;;;22.40;99.90;;;;;;4995590;28;20482;-84
2022/08/26 01:46:01;;;;;;;11.93;9.60;;;22.40;99.90;;;;;;4996983;28;20549;-84
2022/08/26 01:48:31;;;;;;;13.47;10.73;;;22.40;99.90;;;;;;4996907;28;21027;-84
2022/08/26 01:50:59;;;;;;;11.20;9.60;;;22.30;99.90;;;;;;4997046;28;20480;-85
2022/08/26 01:53:27;;;;;;;12.83;9.53;;;22.30;99.90;;;;;;4996527;28;20470;-86
2022/08/26 01:55:58;;;;;;;12.53;10.03;;;22.30;99.90;;;;;;4996393;28;20455;-85
2022/08/26 01:58:30;;;;;;;13.00;9.37;;;22.30;99.90;;;;;;4998711;28;20463;-84
2022/08/26 02:00:58;;;;;;;11.57;9.10;;;22.20;99.90;;;;;;5000337;28;20998;-85
2022/08/26 02:03:26;;;;;;;10.67;9.10;;;22.20;99.90;;;;;;4999401;28;20471;-84
2022/08/26 02:05:55;;;;;;;10.63;9.10;;;22.10;99.90;;;;;;5000701;28;20465;-84
2022/08/26 02:08:26;;;;;;;10.30;8.80;;;22.10;99.90;;;;;;5000280;28;20450;-85
2022/08/26 02:10:55;;;;;;;12.90;9.07;;;22.10;99.90;;;;;;5000126;28;20482;-84
2022/08/26 02:13:23;;;;;;;10.23;9.13;;;22.10;99.90;;;;;;4999175;28;20473;-85
2022/08/26 02:15:49;;;;;;;11.20;7.80;;;22.10;99.90;;;;;;4999735;28;20474;-84
2022/08/26 02:18:17;;;;;;;11.23;8.50;;;22.10;99.90;;;;;;4998515;28;20465;-84
2022/08/26 02:20:44;;;;;;;16.13;10.07;;;22.00;99.90;;;;;;4997963;28;21206;-83
2022/08/26 02:23:11;;;;;;;10.23;9.00;;;22.00;99.90;;;;;;4997676;28;20461;-83
2022/08/26 02:25:46;;;;;;;9.53;8.33;;;22.00;99.90;;;;;;4998525;28;20537;-82
2022/08/26 02:28:16;;;;;;;12.43;9.17;;;22.00;99.90;;;;;;4997642;28;20893;-82
2022/08/26 02:30:44;;;;;;;9.57;8.57;;;22.00;99.90;;;;;;4980696;28;20520;-84
2022/08/26 02:33:11;;;;;;;11.07;9.50;;;22.00;99.90;;;;;;4998077;28;20530;-84
2022/08/26 02:35:39;;;;;;;12.20;9.20;;;21.90;99.90;;;;;;5000326;28;20522;-85
2022/08/26 02:38:07;;;;;;;10.47;8.97;;;21.90;99.90;;;;;;4999472;28;20700;-85
2022/08/26 02:40:36;;;;;;;10.33;8.60;;;21.90;99.90;;;;;;4999166;28;20455;-83
2022/08/26 02:43:03;;;;;;;11.70;9.60;;;21.90;99.90;;;;;;4998342;28;20505;-83
2022/08/26 02:45:32;;;;;;;11.57;10.07;;;21.90;99.90;;;;;;4998526;28;21125;-84
2022/08/26 02:47:59;;;;;;;11.00;9.27;;;21.90;99.90;;;;;;4999579;28;20479;-84
2022/08/26 02:50:27;;;;;;;13.87;11.10;;;21.80;99.90;;;;;;5004524;28;20451;-86
2022/08/26 02:52:55;;;;;;;11.70;10.20;;;21.80;99.90;;;;;;5000367;28;20553;-86
2022/08/26 02:55:22;;;;;;;11.10;9.10;;;21.80;99.90;;;;;;5000252;28;20475;-85
2022/08/26 02:57:49;;;;;;;12.37;9.67;;;21.80;99.90;;;;;;5001033;28;20490;-86
2022/08/26 03:00:16;;;;;;;10.30;9.30;;;21.80;99.90;;;;;;4999666;28;20549;-87
2022/08/26 03:02:45;;;;;;;11.90;9.60;;;21.70;99.90;;;;;;5000155;28;20461;-85
2022/08/26 03:05:12;;;;;;;12.90;10.50;;;21.70;99.90;;;;;;5000294;28;20494;-85
2022/08/26 03:07:39;;;;;;;12.93;10.53;;;21.70;99.90;;;;;;5000044;28;20519;-85
2022/08/26 03:10:12;;;;;;;13.43;12.13;;;21.70;99.90;;;;;;5000948;28;20455;-84
2022/08/26 03:12:40;;;;;;;12.57;10.90;;;21.70;99.90;;;;;;5000043;28;20450;-85
2022/08/26 03:15:08;;;;;;;14.27;12.20;;;21.70;99.90;;;;;;5000254;28;20486;-86
2022/08/26 03:17:35;;;;;;;13.13;11.37;;;21.60;99.90;;;;;;4999473;28;20478;-84
2022/08/26 03:20:07;;;;;;;12.10;10.90;;;21.60;99.90;;;;;;4999823;28;20471;-84
2022/08/26 03:22:34;;;;;;;15.80;13.40;;;21.60;99.90;;;;;;5000131;28;20465;-85
2022/08/26 03:25:02;;;;;;;18.13;13.80;;;21.50;99.90;;;;;;4998686;28;20573;-86
2022/08/26 03:27:29;;;;;;;16.13;14.53;;;21.50;99.90;;;;;;5000678;28;20538;-87
2022/08/26 03:32:40;;;;;;;18.70;16.13;;;21.50;99.90;;;;;;5000338;28;20469;-86
2022/08/26 03:35:09;;;;;;;20.77;18.77;;;21.50;99.90;;;;;;5000199;28;20467;-86
2022/08/26 03:37:36;;;;;;;20.40;18.30;;;21.50;99.90;;;;;;5001610;28;20466;-86
2022/08/26 03:40:03;;;;;;;23.80;18.67;;;21.50;99.90;;;;;;5000742;28;20465;-86
2022/08/26 03:42:30;;;;;;;24.57;20.97;;;21.50;99.90;;;;;;5000143;28;20458;-87
2022/08/26 03:44:57;;;;;;;21.47;19.27;;;21.40;99.90;;;;;;4999688;28;20502;-86
2022/08/26 03:47:24;;;;;;;23.90;20.70;;;21.50;99.90;;;;;;5002470;28;20977;-85
2022/08/26 03:49:51;;;;;;;23.23;20.73;;;21.40;99.90;;;;;;5000619;28;20478;-86
2022/08/26 03:52:19;;;;;;;24.20;21.87;;;21.40;99.90;;;;;;4999822;28;20526;-86
2022/08/26 03:54:46;;;;;;;26.57;23.90;;;21.40;99.90;;;;;;4996492;28;20561;-85
2022/08/26 03:57:13;;;;;;;26.47;23.77;;;21.40;99.90;;;;;;4998685;28;20458;-83
2022/08/26 03:59:40;;;;;;;29.17;26.17;;;21.40;99.90;;;;;;4998313;28;20546;-86
2022/08/26 04:02:07;;;;;;;28.37;25.23;;;21.40;99.90;;;;;;4998247;28;20478;-84
2022/08/26 04:04:35;;;;;;;31.80;28.40;;;21.30;99.90;;;;;;4996592;28;20544;-84
2022/08/26 04:07:02;;;;;;;30.00;27.10;;;21.30;99.90;;;;;;4998547;28;20509;-83
2022/08/26 04:09:31;;;;;;;31.70;28.50;;;21.30;99.90;;;;;;5002022;28;20481;-82
2022/08/26 04:11:58;;;;;;;33.63;30.33;;;21.30;99.90;;;;;;5002221;28;20486;-82
2022/08/26 04:14:27;;;;;;;31.97;28.93;;;21.30;99.90;;;;;;5001700;28;20479;-83
2022/08/26 04:16:55;;;;;;;40.37;36.17;;;21.30;99.90;;;;;;5002091;28;20955;-83
2022/08/26 04:19:24;;;;;;;36.70;32.80;;;21.30;99.90;;;;;;5002402;28;20462;-83
2022/08/26 04:21:51;;;;;;;37.73;33.83;;;21.30;99.90;;;;;;4999983;28;20462;-83
2022/08/26 04:24:20;;;;;;;43.53;38.90;;;21.30;99.90;;;;;;4997578;28;20474;-83
2022/08/26 04:26:49;;;;;;;38.53;34.50;;;21.20;99.90;;;;;;4998363;28;20497;-85
2022/08/26 04:29:18;;;;;;;37.77;34.10;;;21.30;99.90;;;;;;4978579;28;20547;-83
2022/08/26 04:31:46;;;;;;;40.27;36.27;;;21.40;99.90;;;;;;4996449;28;20565;-83
2022/08/26 04:34:14;;;;;;;43.93;39.63;;;21.40;99.90;;;;;;5001039;28;20475;-84
2022/08/26 04:36:41;;;;;;;42.33;37.70;;;21.40;99.90;;;;;;5003708;28;20463;-85
2022/08/26 04:39:11;;;;;;;42.10;37.77;;;21.40;99.90;;;;;;5004237;28;20480;-84
2022/08/26 04:41:38;;;;;;;42.93;38.33;;;21.40;99.90;;;;;;5005010;28;20518;-84
2022/08/26 04:44:07;;;;;;;46.23;41.60;;;21.50;99.90;;;;;;5001495;28;20470;-84
2022/08/26 04:46:34;;;;;;;45.83;40.43;;;21.50;99.90;;;;;;5002625;28;20549;-83
2022/08/26 04:49:01;;;;;;;48.43;41.40;;;21.50;99.90;;;;;;4996965;28;20478;-83
2022/08/26 04:51:28;;;;;;;48.47;43.43;;;21.60;99.90;;;;;;5004933;28;20826;-84
2022/08/26 04:53:55;;;;;;;53.33;48.00;;;21.50;99.90;;;;;;5000568;28;20470;-86
2022/08/26 04:56:23;;;;;;;51.17;45.77;;;21.50;99.90;;;;;;5006746;28;20549;-86
2022/08/26 04:58:50;;;;;;;53.30;47.50;;;21.60;99.90;;;;;;5042934;28;20470;-85
2022/08/26 05:01:19;;;;;;;48.00;43.10;;;21.70;99.90;;;;;;5058625;28;20454;-85
2022/08/26 05:03:46;;;;;;;55.20;48.47;;;21.70;99.90;;;;;;5004040;28;20899;-88
2022/08/26 05:06:13;;;;;;;57.90;50.43;;;21.70;99.90;;;;;;4995750;28;20556;-85
2022/08/26 05:08:40;;;;;;;55.80;49.30;;;21.70;99.90;;;;;;5002408;28;20903;-84
2022/08/26 05:11:08;;;;;;;60.23;53.20;;;21.80;99.90;;;;;;5005425;28;20771;-85
2022/08/26 05:13:37;;;;;;;60.80;52.80;;;21.80;99.90;;;;;;5001640;28;20498;-83
2022/08/26 05:16:06;;;;;;;65.60;56.53;;;21.90;99.90;;;;;;4998327;28;21149;-83
2022/08/26 05:18:35;;;;;;;61.60;54.83;;;21.90;99.90;;;;;;4994958;28;21180;-82
2022/08/26 05:21:02;;;;;;;58.07;49.73;;;21.90;99.90;;;;;;5014207;28;20503;-82
2022/08/26 05:23:30;;;;;;;68.00;55.00;;;22.00;99.90;;;;;;5008536;28;20475;-83
2022/08/26 05:25:59;;;;;;;75.23;60.20;;;21.90;99.90;;;;;;4998934;28;20479;-84
2022/08/26 05:28:27;;;;;;;68.27;54.77;;;21.90;99.90;;;;;;4994879;28;21026;-83
2022/08/26 05:30:55;;;;;;;63.67;55.13;;;21.90;99.90;;;;;;4997109;28;20450;-84
2022/08/26 05:33:23;;;;;;;65.83;54.10;;;21.90;99.90;;;;;;4993608;28;20461;-84
2022/08/26 05:35:51;;;;;;;56.23;48.80;;;21.90;99.90;;;;;;5036068;28;20822;-84
2022/08/26 05:38:20;;;;;;;60.70;52.30;;;22.00;99.90;;;;;;5015705;28;20459;-84
2022/08/26 05:40:49;;;;;;;62.47;51.50;;;22.00;99.90;;;;;;4993935;28;20453;-83
2022/08/26 05:43:17;;;;;;;59.10;50.37;;;22.10;99.90;;;;;;4998254;28;20442;-85
2022/08/26 05:45:46;;;;;;;63.07;51.30;;;22.10;99.90;;;;;;4998154;28;20497;-86
2022/08/26 05:48:14;;;;;;;59.30;48.60;;;22.10;99.90;;;;;;5000831;28;20476;-84
2022/08/26 05:50:43;;;;;;;62.57;52.30;;;22.10;99.90;;;;;;5009491;28;20488;-82
2022/08/26 05:53:13;;;;;;;54.80;45.17;;;22.00;99.90;;;;;;5003553;28;20451;-84
2022/08/26 05:55:42;;;;;;;56.07;45.83;;;22.00;99.90;;;;;;4985947;28;20934;-85
2022/08/26 05:58:09;;;;;;;52.50;43.07;;;22.10;99.90;;;;;;4999605;28;20549;-87
2022/08/26 06:00:36;;;;;;;63.47;48.60;;;22.20;99.90;;;;;;4999827;28;20518;-85
2022/08/26 06:03:03;;;;;;;47.17;40.27;;;22.10;99.90;;;;;;4997404;28;20974;-87
2022/08/26 06:05:30;;;;;;;49.27;41.00;;;22.10;99.90;;;;;;4997716;28;20562;-87
2022/08/26 06:08:13;;;;;;;44.37;39.43;;;22.20;99.90;;;;;;5000795;28;20497;-86
2022/08/26 06:10:46;;;;;;;53.43;44.10;;;22.20;99.90;;;;;;4990647;28;20553;-86
2022/08/26 06:13:13;;;;;;;54.33;46.40;;;22.20;99.90;;;;;;4997068;28;20936;-86
2022/08/26 06:15:42;;;;;;;56.67;46.00;;;22.20;99.90;;;;;;4981285;28;21015;-86
2022/08/26 06:18:10;;;;;;;47.27;38.87;;;22.20;99.90;;;;;;5040074;28;20426;-88
2022/08/26 06:20:36;;;;;;;42.30;35.73;;;22.20;99.90;;;;;;5048196;28;20447;-85
2022/08/26 06:25:51;;;;;;;51.77;39.63;;;22.40;99.90;;;;;;5010252;28;20511;-87
2022/08/26 06:28:18;;;;;;;41.30;34.60;;;22.40;99.90;;;;;;5057547;28;20469;-86
2022/08/26 06:30:44;;;;;;;50.50;40.77;;;22.50;99.90;;;;;;5001312;28;20518;-87
2022/08/26 06:33:12;;;;;;;44.83;38.80;;;22.40;99.90;;;;;;4993702;28;20963;-87
2022/08/26 06:35:40;;;;;;;37.03;33.13;;;22.40;99.90;;;;;;4990849;28;20448;-86
2022/08/26 06:38:08;;;;;;;46.77;35.83;;;22.50;99.90;;;;;;4989229;28;20453;-86
2022/08/26 06:40:40;;;;;;;48.80;39.70;;;22.50;99.90;;;;;;4995812;28;20460;-86
2022/08/26 06:43:09;;;;;;;49.60;41.17;;;22.50;99.90;;;;;;4986980;28;20917;-86
2022/08/26 06:45:37;;;;;;;50.53;42.70;;;22.50;99.90;;;;;;4987440;28;20991;-85
2022/08/26 06:48:05;;;;;;;51.93;46.23;;;22.40;99.90;;;;;;4989835;28;21023;-85
2022/08/26 06:50:35;;;;;;;50.57;44.10;;;22.30;99.90;;;;;;4988725;28;20455;-85
2022/08/26 06:53:02;;;;;;;43.13;37.33;;;22.30;99.90;;;;;;4988882;28;20463;-87
2022/08/26 06:55:28;;;;;;;43.90;38.60;;;22.40;99.90;;;;;;4991291;28;20514;-85
2022/08/26 06:57:57;;;;;;;51.97;41.73;;;22.50;99.90;;;;;;4987892;28;20466;-86
2022/08/26 07:00:25;;;;;;;54.17;45.83;;;22.60;99.90;;;;;;4987730;28;20532;-85
2022/08/26 07:02:55;;;;;;;44.47;38.37;;;22.50;99.90;;;;;;4986138;28;20482;-85
2022/08/26 07:05:22;;;;;;;39.67;34.43;;;22.60;99.90;;;;;;4984883;28;20573;-85
2022/08/26 07:07:51;;;;;;;42.33;36.00;;;22.70;99.90;;;;;;4984334;28;21235;-85
2022/08/26 07:10:20;;;;;;;45.40;39.70;;;22.60;99.90;;;;;;4982313;28;20477;-86
2022/08/26 07:12:48;;;;;;;51.17;41.00;;;22.60;99.90;;;;;;4988513;28;20463;-88
2022/08/26 07:15:15;;;;;;;41.93;37.43;;;22.40;99.90;;;;;;5002982;28;20535;-84
2022/08/26 07:17:43;;;;;;;50.87;42.73;;;22.40;99.90;;;;;;4994051;28;20456;-86
2022/08/26 07:20:11;;;;;;;42.70;38.17;;;22.50;99.90;;;;;;4991560;28;20542;-84
2022/08/26 07:22:39;;;;;;;41.23;37.00;;;22.60;99.90;;;;;;4999278;28;20889;-87
2022/08/26 07:25:08;;;;;;;49.50;44.17;;;22.60;99.90;;;;;;4993328;28;20471;-85
2022/08/26 07:27:36;;;;;;;39.47;35.37;;;22.60;99.90;;;;;;4993680;28;20487;-85
2022/08/26 07:30:03;;;;;;;40.60;35.70;;;22.60;99.90;;;;;;4993775;28;20546;-85
2022/08/26 07:32:31;;;;;;;38.70;32.90;;;22.60;99.90;;;;;;4990398;28;20460;-85
2022/08/26 07:34:59;;;;;;;39.07;34.97;;;22.70;99.90;;;;;;4995351;28;20477;-89
2022/08/26 07:37:27;;;;;;;46.43;41.47;;;22.80;99.90;;;;;;4987625;28;20699;-84
2022/08/26 07:39:53;;;;;;;49.63;44.37;;;22.90;99.90;;;;;;4993799;28;20480;-84
2022/08/26 07:42:20;;;;;;;51.33;44.13;;;23.00;99.90;;;;;;4996165;28;21029;-84
2022/08/26 07:44:48;;;;;;;52.63;46.10;;;23.00;99.90;;;;;;4993481;28;20475;-84
2022/08/26 07:47:15;;;;;;;46.57;41.67;;;23.00;99.90;;;;;;4977717;28;20492;-84
2022/08/26 07:49:42;;;;;;;52.20;45.03;;;23.10;99.90;;;;;;4992796;28;20540;-84
2022/08/26 07:52:10;;;;;;;52.37;44.93;;;23.00;99.90;;;;;;4998159;28;20521;-84
2022/08/26 07:54:37;;;;;;;46.40;41.30;;;22.70;99.90;;;;;;4992199;28;20494;-86
2022/08/26 07:57:05;;;;;;;45.10;40.23;;;22.80;99.90;;;;;;4991116;28;20453;-83
2022/08/26 07:59:32;;;;;;;46.90;39.10;;;22.80;99.90;;;;;;4994380;28;20478;-84
2022/08/26 08:01:59;;;;;;;40.57;36.23;;;22.80;99.90;;;;;;4994671;28;20455;-84
2022/08/26 08:04:26;;;;;;;39.00;34.47;;;22.90;99.90;;;;;;4999893;28;20535;-87
2022/08/26 08:06:54;;;;;;;52.60;44.17;;;23.00;99.90;;;;;;5004410;28;20658;-85
2022/08/26 08:09:23;;;;;;;46.07;39.70;;;23.00;99.90;;;;;;5001578;28;20451;-84
2022/08/26 08:11:50;;;;;;;43.90;39.50;;;22.90;99.90;;;;;;5001307;28;20563;-85
2022/08/26 08:14:18;;;;;;;47.47;42.67;;;23.00;99.90;;;;;;4999723;28;20486;-85
2022/08/26 08:16:45;;;;;;;48.73;43.13;;;23.00;99.90;;;;;;5000241;28;20459;-85
2022/08/26 08:19:12;;;;;;;44.23;39.43;;;22.90;99.90;;;;;;4999044;28;20454;-84
2022/08/26 08:21:39;;;;;;;44.73;40.17;;;23.00;99.90;;;;;;5000783;28;20550;-86
2022/08/26 08:24:06;;;;;;;41.80;37.67;;;23.10;99.90;;;;;;4998592;28;20987;-85
2022/08/26 08:26:35;;;;;;;45.70;41.00;;;23.20;99.90;;;;;;4995640;28;21065;-84
2022/08/26 08:29:01;;;;;;;50.77;45.50;;;23.00;99.90;;;;;;4993818;28;20561;-84
2022/08/26 08:31:30;;;;;;;45.50;39.80;;;22.90;99.90;;;;;;4993374;28;20932;-84
2022/08/26 08:33:57;;;;;;;40.83;36.37;;;22.70;99.90;;;;;;4993507;28;20470;-84
2022/08/26 08:36:24;;;;;;;41.83;37.23;;;22.80;99.90;;;;;;4993832;28;20865;-83
2022/08/26 08:38:51;;;;;;;50.13;43.23;;;22.90;99.90;;;;;;4994272;28;20515;-84
2022/08/26 08:41:28;;;;;;;40.07;35.97;;;22.90;99.90;;;;;;4993705;28;20455;-84
2022/08/26 08:43:56;;;;;;;46.17;41.37;;;23.00;99.90;;;;;;4992883;28;20553;-84
2022/08/26 08:46:23;;;;;;;47.17;42.37;;;23.00;99.90;;;;;;4987135;28;20478;-84
2022/08/26 08:48:55;;;;;;;44.77;39.90;;;23.00;99.90;;;;;;4988518;28;20978;-84
2022/08/26 08:51:42;;;;;;;45.30;40.40;;;22.90;99.90;;;;;;4989402;28;20493;-85
2022/08/26 08:57:02;;;;;;;48.40;42.50;;;22.90;99.90;;;;;;4988093;28;20490;-83
2022/08/26 08:59:35;;;;;;;45.23;40.30;;;22.90;99.90;;;;;;4985613;28;20648;-85
2022/08/26 09:02:09;;;;;;;40.97;36.67;;;22.90;99.90;;;;;;4983408;28;20535;-85
2022/08/26 09:04:55;;;;;;;39.40;35.40;;;23.10;99.90;;;;;;4980806;28;21006;-84
2022/08/26 09:07:26;;;;;;;38.20;34.00;;;23.20;99.90;;;;;;4982921;28;20482;-84
2022/08/26 09:09:56;;;;;;;34.47;30.73;;;23.20;99.90;;;;;;4987248;28;20527;-83
2022/08/26 09:12:26;;;;;;;29.67;26.70;;;23.30;99.90;;;;;;4983766;28;20448;-85
2022/08/26 09:15:00;;;;;;;28.03;25.40;;;23.10;99.90;;;;;;4984072;28;20570;-87
2022/08/26 09:17:35;;;;;;;28.40;25.30;;;23.10;99.90;;;;;;4984561;28;20446;-85
2022/08/26 09:20:10;;;;;;;32.43;26.87;;;23.10;99.90;;;;;;4982377;28;20450;-84
2022/08/26 09:22:38;;;;;;;34.33;30.33;;;23.20;99.90;;;;;;4995943;28;20545;-84
2022/08/26 09:25:09;;;;;;;42.47;37.67;;;23.20;99.90;;;;;;4995212;28;20458;-84
2022/08/26 09:27:42;;;;;;;38.53;34.70;;;23.00;99.90;;;;;;4995908;28;20517;-84
2022/08/26 09:30:14;;;;;;;39.30;35.13;;;23.10;99.90;;;;;;5001206;28;20502;-84
2022/08/26 09:32:43;;;;;;;47.63;37.20;;;23.00;99.90;;;;;;5002704;28;20461;-85
2022/08/26 09:35:25;;;;;;;34.90;31.00;;;22.90;99.90;;;;;;5008798;28;21005;-84
2022/08/26 09:37:52;;;;;;;37.30;33.10;;;22.90;99.90;;;;;;5001121;28;20457;-84
2022/08/26 09:40:25;;;;;;;31.37;27.97;;;22.90;99.90;;;;;;5000911;28;20482;-85
2022/08/26 09:43:09;;;;;;;30.83;27.67;;;22.90;99.90;;;;;;5000885;28;20461;-87
2022/08/26 09:45:38;;;;;;;24.97;22.47;;;23.10;99.90;;;;;;4984420;28;20485;-86
2022/08/26 09:48:12;;;;;;;26.53;23.83;;;23.10;99.90;;;;;;5047286;28;20491;-84
2022/08/26 09:50:50;;;;;;;28.23;25.13;;;23.10;99.90;;;;;;5042997;28;20442;-90
2022/08/26 09:53:19;;;;;;;26.37;23.67;;;23.20;99.90;;;;;;5099551;28;20438;-85
2022/08/26 09:55:48;;;;;;;29.90;26.80;;;23.30;99.90;;;;;;5109975;28;20454;-84
2022/08/26 09:58:30;;;;;;;26.00;23.20;;;23.30;99.90;;;;;;5055547;28;20839;-84
2022/08/26 10:01:01;;;;;;;28.43;25.60;;;23.30;99.90;;;;;;5000587;28;20486;-84
2022/08/26 10:03:31;;;;;;;25.77;23.10;;;23.30;99.90;;;;;;5016753;28;20470;-84
2022/08/26 10:06:00;;;;;;;25.80;22.77;;;23.40;99.90;;;;;;5029809;28;20451;-83
2022/08/26 10:08:29;;;;;;;27.97;25.07;;;23.60;99.90;;;;;;4999255;28;20836;-84
2022/08/26 10:10:59;;;;;;;22.70;20.30;;;23.70;99.90;;;;;;5005575;28;20481;-87
2022/08/26 10:13:33;;;;;;;21.70;19.60;;;23.70;99.90;;;;;;5009239;28;20829;-83
2022/08/26 10:16:11;;;;;;;23.50;21.13;;;23.90;99.90;;;;;;4999659;28;20514;-84
2022/08/26 10:18:43;;;;;;;24.73;22.43;;;24.00;99.90;;;;;;4999379;28;20459;-84
2022/08/26 10:21:14;;;;;;;22.63;20.60;;;24.10;99.90;;;;;;5004405;28;20448;-85
2022/08/26 10:23:48;;;;;;;20.43;18.37;;;24.10;99.90;;;;;;5007017;28;20498;-86
2022/08/26 10:26:23;;;;;;;17.60;15.70;;;24.10;99.90;;;;;;5090192;28;20492;-84
2022/08/26 10:28:56;;;;;;;17.87;15.97;;;24.10;99.90;;;;;;5012271;28;20450;-84
2022/08/26 10:31:33;;;;;;;18.07;16.37;;;24.10;99.90;;;;;;5052681;28;20446;-86
2022/08/26 10:34:00;;;;;;;18.53;16.57;;;24.00;99.90;;;;;;5014586;28;20511;-84
2022/08/26 10:36:49;;;;;;;19.47;17.07;;;24.00;99.90;;;;;;4998874;28;20451;-86
2022/08/26 10:39:22;;;;;;;19.30;17.03;;;24.00;99.90;;;;;;4993037;28;20443;-87
2022/08/26 10:41:55;;;;;;;19.83;17.93;;;23.90;99.90;;;;;;4993093;28;20461;-83
2022/08/26 10:44:26;;;;;;;22.30;20.20;;;24.00;99.90;;;;;;5002832;28;20538;-85
2022/08/26 10:47:01;;;;;;;21.80;19.60;;;24.00;99.90;;;;;;4995276;28;20514;-85
2022/08/26 10:49:28;;;;;;;17.73;16.03;;;23.90;99.90;;;;;;4986272;28;20439;-86
2022/08/26 10:52:03;;;;;;;18.17;15.03;;;24.10;99.90;;;;;;5008040;28;20514;-85
2022/08/26 10:54:39;;;;;;;16.07;14.57;;;24.10;99.90;;;;;;5004013;28;21168;-85
2022/08/26 10:57:15;;;;;;;18.57;16.57;;;24.20;99.90;;;;;;4991607;28;20454;-82
2022/08/26 11:01:40;;;;;;;14.90;13.40;;;24.10;99.90;;;;;;5002058;28;20443;-82
2022/08/26 11:02:49;;;;;;;18.00;15.73;;;24.30;99.90;;;;;;4980613;28;20508;-82
2022/08/26 11:05:19;;;;;;;19.80;17.40;;;24.20;99.90;;;;;;5003682;28;20470;-82
2022/08/26 11:07:51;;;;;;;16.53;14.87;;;24.10;99.90;;;;;;4987829;28;20495;-82
2022/08/26 11:10:53;;;;;;;12.80;11.50;;;24.10;99.90;;;;;;4991117;28;20452;-82
2022/08/26 11:14:07;;;;;;;14.37;11.77;;;24.10;99.90;;;;;;5002663;28;20466;-81
2022/08/26 11:16:41;;;;;;;16.17;10.37;;;24.10;99.90;;;;;;4991171;28;20467;-82
2022/08/26 11:19:52;;;;;;;11.20;9.97;;;24.10;99.90;;;;;;4995150;28;20459;-81
2022/08/26 11:22:27;;;;;;;15.93;10.13;;;24.10;99.90;;;;;;4992917;28;20473;-84
2022/08/26 11:25:03;;;;;;;9.47;8.47;;;24.10;99.90;;;;;;4985632;28;20490;-82
2022/08/26 11:28:04;;;;;;;15.10;12.27;;;24.30;99.90;;;;;;4993901;28;20482;-83
2022/08/26 11:30:46;;;;;;;15.40;13.20;;;24.20;99.90;;;;;;4991084;28;20447;-84
2022/08/26 11:33:57;;;;;;;16.57;12.57;;;24.10;99.90;;;;;;4984495;28;20474;-82
2022/08/26 11:36:42;;;;;;;14.30;9.83;;;24.20;99.90;;;;;;4960183;28;20450;-84
2022/08/26 11:39:20;;;;;;;14.57;11.90;;;24.40;99.90;;;;;;4994263;28;20853;-83
2022/08/26 11:41:52;;;;;;;17.37;11.50;;;24.50;99.90;;;;;;4989884;28;20451;-82
2022/08/26 11:44:21;;;;;;;22.77;10.80;;;24.60;99.90;;;;;;4991580;28;20479;-83
2022/08/26 11:46:56;;;;;;;19.60;10.90;;;24.60;99.90;;;;;;4993082;28;20507;-81
2022/08/26 11:49:24;;;;;;;11.20;9.97;;;24.70;99.90;;;;;;4990721;28;20509;-83
2022/08/26 11:52:16;;;;;;;13.27;10.73;;;24.60;99.90;;;;;;4994414;28;20537;-84
2022/08/26 11:55:05;;;;;;;10.07;9.07;;;24.60;99.90;;;;;;5003363;28;20519;-84
2022/08/26 11:57:35;;;;;;;10.37;8.90;;;24.60;99.90;;;;;;5001891;28;20473;-82
2022/08/26 12:00:04;;;;;;;9.47;7.93;;;24.70;99.90;;;;;;5001387;28;20459;-82
2022/08/26 12:02:32;;;;;;;9.63;8.07;;;24.60;99.90;;;;;;5004383;28;20978;-83
2022/08/26 12:05:02;;;;;;;11.17;8.03;;;24.50;99.90;;;;;;5068451;28;20912;-82
2022/08/26 12:07:34;;;;;;;11.13;7.80;;;24.60;99.90;;;;;;5015899;28;20482;-83
2022/08/26 12:10:03;;;;;;;13.80;7.73;;;24.50;99.90;;;;;;5005624;28;21178;-81
2022/08/26 12:12:32;;;;;;;12.43;7.30;;;24.60;99.90;;;;;;4998836;28;20521;-84
2022/08/26 12:15:08;;;;;;;15.53;7.90;;;24.50;99.90;;;;;;4997221;28;20517;-83
2022/08/26 12:17:36;;;;;;;11.20;8.00;;;24.50;99.90;;;;;;5045229;28;20465;-84
2022/08/26 12:20:05;;;;;;;10.33;7.00;;;24.40;99.90;;;;;;5035488;28;20904;-84
2022/08/26 12:22:37;;;;;;;11.97;7.30;;;24.50;99.90;;;;;;4997770;28;20993;-84
2022/08/26 12:25:09;;;;;;;12.33;6.10;;;24.50;99.90;;;;;;4996297;28;20868;-84
2022/08/26 12:27:38;;;;;;;8.13;6.70;;;24.50;99.90;;;;;;5044529;28;20520;-83
2022/08/26 12:30:09;;;;;;;11.23;7.30;;;24.50;99.90;;;;;;5031695;28;20459;-83
2022/08/26 12:32:37;;;;;;;11.20;8.63;;;24.50;99.90;;;;;;4994542;28;20482;-82
2022/08/26 12:35:08;;;;;;;7.07;5.70;;;24.60;99.90;;;;;;4993092;28;20869;-86
2022/08/26 12:37:41;;;;;;;10.57;7.30;;;24.70;99.90;;;;;;4998689;28;20893;-81
2022/08/26 12:40:31;;;;;;;15.33;6.60;;;24.70;99.90;;;;;;4993501;28;20480;-82
2022/08/26 12:43:00;;;;;;;7.53;5.60;;;24.90;99.90;;;;;;4990584;28;20782;-85
2022/08/26 12:45:29;;;;;;;11.37;6.87;;;24.80;99.90;;;;;;4993296;28;20482;-85
2022/08/26 12:47:59;;;;;;;7.63;4.97;;;24.70;99.90;;;;;;4993388;28;20487;-84
2022/08/26 12:50:29;;;;;;;8.70;6.93;;;24.70;99.90;;;;;;4988525;28;20968;-83
2022/08/26 12:53:05;;;;;;;8.20;5.57;;;24.70;99.90;;;;;;4985667;28;20444;-84
2022/08/26 12:55:40;;;;;;;6.83;6.10;;;24.90;99.90;;;;;;4985589;28;20515;-83